Tenjinmaru No11 — JD3353 — position and weather

sailwx.info

Track history (hours):
 
Tides and Currents Weather Stations Pressure Air Temp Water Temp Dewpoint Dewpoint Depression Visibility Wind Speed Wind Dir Waves Ship Positions

Tenjinmaru No11

Last reported at 2017-Feb-21 22:32 UTC. Time now 2017-Feb-22 15:21 UTC.
Position N 34°57' E 139°44'.

Length 75 m; draft 4.8 m.

Type: Cargo ship. MMSI: 431003485.

Date/timePositionNaut miles runAvg speedWind from/ knotsBaromVisibWave heightAir tempDewpointWater temp
2017-Feb-21 22:32N 34°57' E 139°44'1111.1
2017-Feb-21 21:33N 35°08' E 139°45'1111.1
2017-Feb-21 20:33N 35°19' E 139°43'3 3.0
2017-Feb-21 19:31N 35°21' E 139°41'0 0.0
2017-Feb-21 18:33N 35°21' E 139°41'0 0.0
2017-Feb-21 17:33N 35°21' E 139°41'0 0.0
2017-Feb-21 16:34N 35°21' E 139°41'0 0.1
2017-Feb-21 15:34N 35°21' E 139°41'0 0.1
2017-Feb-21 14:34N 35°21' E 139°41'0 0.1
2017-Feb-21 13:33N 35°21' E 139°41'0 0.1
2017-Feb-21 12:33N 35°21' E 139°41'0 0.0
2017-Feb-21 11:34N 35°21' E 139°41'0 0.0
2017-Feb-21 10:33N 35°21' E 139°41'0 0.0
2017-Feb-21 09:33N 35°21' E 139°41'0 0.0
2017-Feb-21 08:33N 35°21' E 139°41'0 0.0
2017-Feb-21 07:34N 35°21' E 139°41'0 0.0
2017-Feb-21 06:34N 35°21' E 139°41'0 0.0
2017-Feb-21 05:34N 35°21' E 139°41'0 0.0
2017-Feb-21 04:33N 35°21' E 139°41'0 0.0
2017-Feb-21 03:34N 35°21' E 139°41'0 0.0
2017-Feb-21 02:33N 35°21' E 139°41'0 0.0
2017-Feb-21 01:33N 35°21' E 139°41'0 0.0
2017-Feb-21 00:33N 35°21' E 139°41'0 0.0
2017-Feb-20 23:33N 35°21' E 139°41'0 0.0
2017-Feb-20 22:33N 35°21' E 139°41'0 0.0
2017-Feb-20 21:33N 35°21' E 139°41'0 0.0
2017-Feb-20 20:33N 35°21' E 139°41'0 0.0
2017-Feb-20 19:33N 35°21' E 139°41'0 0.0
2017-Feb-20 18:33N 35°21' E 139°41'0 0.0
2017-Feb-20 17:33N 35°21' E 139°41'0 0.0
2017-Feb-20 16:34N 35°21' E 139°41'0 0.0
2017-Feb-20 15:33N 35°21' E 139°41'0 0.0
2017-Feb-20 14:33N 35°21' E 139°41'0 0.0
2017-Feb-20 13:33N 35°21' E 139°41'0 0.0
2017-Feb-20 12:34N 35°21' E 139°41'0 0.1
2017-Feb-20 11:31N 35°21' E 139°41'0 0.0
2017-Feb-20 10:32N 35°21' E 139°41'0 0.1
2017-Feb-20 09:32N 35°22' E 139°41'0 0.0
2017-Feb-20 08:33N 35°22' E 139°41'0 0.0
2017-Feb-20 07:32N 35°22' E 139°41'0 0.0
2017-Feb-20 06:32N 35°22' E 139°41'0 0.1
2017-Feb-20 05:33N 35°22' E 139°41'0 0.0
2017-Feb-20 04:34N 35°22' E 139°41'0 0.0
2017-Feb-20 03:32N 35°22' E 139°41'0 0.0
2017-Feb-20 02:31N 35°22' E 139°41'0 0.2
2017-Feb-20 01:33N 35°22' E 139°41'8 8.3
2017-Feb-20 00:33N 35°27' E 139°48'4 0.2
2017-Feb-19 04:33N 35°29' E 139°52'1111.1
2017-Feb-19 03:33N 35°20' E 139°44'1010.5
2017-Feb-19 02:33N 35°10' E 139°46'  
2017-Feb-16 20:20N 33°57' E 132°43'810.3
2017-Feb-16 19:33N 33°53' E 132°34'  
2017-Feb-14 12:33N 33°54' E 132°09'18 0.5
2017-Feb-12 20:32N 34°01' E 132°29'1212.0
2017-Feb-12 19:32N 34°06' E 132°42'  
Track history (hours):
 
Tides and Currents Weather Stations Pressure Air Temp Water Temp Dewpoint Dewpoint Depression Visibility Wind Speed Wind Dir Waves Ship Positions

Tenjinmaru No11

Last reported at 2017-Feb-21 22:32 UTC. Time now 2017-Feb-22 15:21 UTC.
Position N 34°57' E 139°44'.

Length 75 m; draft 4.8 m.

Type: Cargo ship. MMSI: 431003485.

Date/timePositionNaut miles runAvg speedWind from/ knotsBaromVisibWave heightAir tempDewpointWater temp
2017-Feb-21 22:32N 34°57' E 139°44'1111.1
2017-Feb-21 21:33N 35°08' E 139°45'1111.1
2017-Feb-21 20:33N 35°19' E 139°43'3 3.0
2017-Feb-21 19:31N 35°21' E 139°41'0 0.0
2017-Feb-21 18:33N 35°21' E 139°41'0 0.0
2017-Feb-21 17:33N 35°21' E 139°41'0 0.0
2017-Feb-21 16:34N 35°21' E 139°41'0 0.1
2017-Feb-21 15:34N 35°21' E 139°41'0 0.1
2017-Feb-21 14:34N 35°21' E 139°41'0 0.1
2017-Feb-21 13:33N 35°21' E 139°41'0 0.1
2017-Feb-21 12:33N 35°21' E 139°41'0 0.0
2017-Feb-21 11:34N 35°21' E 139°41'0 0.0
2017-Feb-21 10:33N 35°21' E 139°41'0 0.0
2017-Feb-21 09:33N 35°21' E 139°41'0 0.0
2017-Feb-21 08:33N 35°21' E 139°41'0 0.0
2017-Feb-21 07:34N 35°21' E 139°41'0 0.0
2017-Feb-21 06:34N 35°21' E 139°41'0 0.0
2017-Feb-21 05:34N 35°21' E 139°41'0 0.0
2017-Feb-21 04:33N 35°21' E 139°41'0 0.0
2017-Feb-21 03:34N 35°21' E 139°41'0 0.0
2017-Feb-21 02:33N 35°21' E 139°41'0 0.0
2017-Feb-21 01:33N 35°21' E 139°41'0 0.0
2017-Feb-21 00:33N 35°21' E 139°41'0 0.0
2017-Feb-20 23:33N 35°21' E 139°41'0 0.0
2017-Feb-20 22:33N 35°21' E 139°41'0 0.0
2017-Feb-20 21:33N 35°21' E 139°41'0 0.0
2017-Feb-20 20:33N 35°21' E 139°41'0 0.0
2017-Feb-20 19:33N 35°21' E 139°41'0 0.0
2017-Feb-20 18:33N 35°21' E 139°41'0 0.0
2017-Feb-20 17:33N 35°21' E 139°41'0 0.0
2017-Feb-20 16:34N 35°21' E 139°41'0 0.0
2017-Feb-20 15:33N 35°21' E 139°41'0 0.0
2017-Feb-20 14:33N 35°21' E 139°41'0 0.0
2017-Feb-20 13:33N 35°21' E 139°41'0 0.0
2017-Feb-20 12:34N 35°21' E 139°41'0 0.1
2017-Feb-20 11:31N 35°21' E 139°41'0 0.0
2017-Feb-20 10:32N 35°21' E 139°41'0 0.1
2017-Feb-20 09:32N 35°22' E 139°41'0 0.0
2017-Feb-20 08:33N 35°22' E 139°41'0 0.0
2017-Feb-20 07:32N 35°22' E 139°41'0 0.0
2017-Feb-20 06:32N 35°22' E 139°41'0 0.1
2017-Feb-20 05:33N 35°22' E 139°41'0 0.0
2017-Feb-20 04:34N 35°22' E 139°41'0 0.0
2017-Feb-20 03:32N 35°22' E 139°41'0 0.0
2017-Feb-20 02:31N 35°22' E 139°41'0 0.2
2017-Feb-20 01:33N 35°22' E 139°41'8 8.3
2017-Feb-20 00:33N 35°27' E 139°48'4 0.2
2017-Feb-19 04:33N 35°29' E 139°52'1111.1
2017-Feb-19 03:33N 35°20' E 139°44'1010.5
2017-Feb-19 02:33N 35°10' E 139°46'  
2017-Feb-16 20:20N 33°57' E 132°43'810.3
2017-Feb-16 19:33N 33°53' E 132°34'  
2017-Feb-14 12:33N 33°54' E 132°09'18 0.5
2017-Feb-12 20:32N 34°01' E 132°29'1212.0
2017-Feb-12 19:32N 34°06' E 132°42'  

Dump ship's entire track history